Time;durP1;ratioP1;P1;durP2;ratioP2;P2;SDS_P1;SDS_P2;PMS_P1;PMS_P2;Temp;Humidity;BMP_temperature;BMP_pressure;BME280_temperature;BME280_humidity;BME280_pressure;Samples;Min_cycle;Max_cycle;Signal;HPM_P1;HPM_P2
2023/06/03 00:02:07;;;;;;;2.92;0.90;;;10.50;99.90;;;;;;5111773;28;20176;-66
2023/06/03 00:04:33;;;;;;;4.15;0.65;;;10.50;99.90;;;;;;5094388;28;20035;-66
2023/06/03 00:06:59;;;;;;;1.35;0.65;;;10.50;99.90;;;;;;5077132;28;20035;-65
2023/06/03 00:09:25;;;;;;;1.00;0.73;;;10.50;99.90;;;;;;5093562;28;20035;-66
2023/06/03 00:11:52;;;;;;;2.15;0.70;;;10.50;99.90;;;;;;5112071;28;20046;-66
2023/06/03 00:14:18;;;;;;;2.00;0.70;;;10.40;99.90;;;;;;5112399;28;20050;-65
2023/06/03 00:16:45;;;;;;;4.60;0.80;;;10.40;99.90;;;;;;5093283;28;20040;-65
2023/06/03 00:19:14;;;;;;;2.30;0.88;;;10.50;99.90;;;;;;5093825;28;20049;-66
2023/06/03 00:21:49;;;;;;;1.48;0.50;;;10.50;99.90;;;;;;5076829;28;20054;-66
2023/06/03 00:24:17;;;;;;;1.60;0.73;;;10.40;99.90;;;;;;5111302;28;20050;-66
2023/06/03 00:26:42;;;;;;;1.00;0.60;;;10.40;99.90;;;;;;5076856;28;20511;-66
2023/06/03 00:29:09;;;;;;;1.10;0.50;;;10.40;99.90;;;;;;5093599;28;20055;-66
2023/06/03 00:31:35;;;;;;;0.77;0.52;;;10.40;99.90;;;;;;5076255;28;20035;-65
2023/06/03 00:34:01;;;;;;;0.95;0.73;;;10.40;99.90;;;;;;5111944;28;20064;-66
2023/06/03 00:36:27;;;;;;;1.08;0.40;;;10.40;99.90;;;;;;5111595;28;20036;-66
2023/06/03 00:38:53;;;;;;;1.85;0.50;;;10.40;99.90;;;;;;5093346;28;20040;-66
2023/06/03 00:41:19;;;;;;;4.57;0.38;;;10.40;99.90;;;;;;5076520;28;20100;-66
2023/06/03 00:43:45;;;;;;;3.45;1.08;;;10.50;99.90;;;;;;5075945;28;20176;-65
2023/06/03 00:46:12;;;;;;;1.25;0.60;;;10.50;99.90;;;;;;5111849;28;20055;-66
2023/06/03 00:48:39;;;;;;;0.32;0.30;;;10.50;99.90;;;;;;5093468;28;20054;-66
2023/06/03 00:51:07;;;;;;;1.15;0.50;;;10.60;99.90;;;;;;5092287;28;20048;-65
2023/06/03 00:53:33;;;;;;;0.85;0.60;;;10.60;99.90;;;;;;5111707;28;20039;-66
2023/06/03 00:55:59;;;;;;;1.15;0.50;;;10.60;99.90;;;;;;5093188;28;20496;-66
2023/06/03 00:58:25;;;;;;;0.20;0.20;;;10.70;99.90;;;;;;5110763;28;20040;-65
2023/06/03 01:00:51;;;;;;;1.98;0.60;;;10.70;99.90;;;;;;5076283;28;20054;-65
2023/06/03 01:03:19;;;;;;;0.47;0.20;;;10.70;99.90;;;;;;5111392;28;20089;-66
2023/06/03 01:05:54;;;;;;;0.88;0.30;;;10.60;99.90;;;;;;5092600;28;20032;-65
2023/06/03 01:09:04;;;;;;;0.70;0.50;;;10.60;99.90;;;;;;5111407;28;20055;-66
2023/06/03 01:11:42;;;;;;;0.65;0.43;;;10.50;99.90;;;;;;5066892;28;20083;-66
2023/06/03 01:14:34;;;;;;;0.65;0.30;;;10.50;99.90;;;;;;5092962;28;20035;-66
2023/06/03 01:17:09;;;;;;;1.08;0.52;;;10.40;99.90;;;;;;5093019;28;20071;-65
2023/06/03 01:19:50;;;;;;;0.50;0.30;;;10.30;99.90;;;;;;5110391;28;20040;-65
2023/06/03 01:22:18;;;;;;;0.73;0.55;;;10.30;99.90;;;;;;5093129;28;20054;-66
2023/06/03 01:24:45;;;;;;;0.75;0.40;;;10.30;99.90;;;;;;5075760;28;20128;-65
2023/06/03 01:27:12;;;;;;;2.60;0.50;;;10.30;99.90;;;;;;5092049;28;20043;-64
2023/06/03 01:29:41;;;;;;;0.60;0.32;;;10.30;99.90;;;;;;5092699;28;20449;-65
2023/06/03 01:32:12;;;;;;;0.73;0.40;;;10.20;99.90;;;;;;5092326;28;20040;-65
2023/06/03 01:34:41;;;;;;;1.65;0.65;;;10.00;99.90;;;;;;5075060;28;20046;-65
2023/06/03 01:37:08;;;;;;;0.85;0.50;;;10.00;99.90;;;;;;5092403;28;20036;-65
2023/06/03 01:39:41;;;;;;;0.93;0.63;;;9.90;99.90;;;;;;5091742;28;20078;-65
2023/06/03 01:42:11;;;;;;;2.58;0.73;;;9.70;99.90;;;;;;5092392;28;20545;-65
2023/06/03 01:44:37;;;;;;;3.65;0.52;;;9.70;99.90;;;;;;5092518;28;20040;-65
2023/06/03 01:47:04;;;;;;;0.98;0.50;;;9.60;99.90;;;;;;5074886;28;20075;-64
2023/06/03 01:49:31;;;;;;;2.30;0.68;;;9.60;99.90;;;;;;5092131;28;20043;-65
2023/06/03 01:52:01;;;;;;;0.63;0.30;;;9.50;99.90;;;;;;5092022;28;20055;-65
2023/06/03 01:54:28;;;;;;;;;;;9.40;99.90;;;;;;5075373;28;20092;-65
2023/06/03 01:56:56;;;;;;;1.00;0.50;;;9.40;99.90;;;;;;5110235;28;19927;-65
2023/06/03 01:59:23;;;;;;;1.55;0.65;;;9.40;99.90;;;;;;5092123;28;20043;-65
2023/06/03 02:01:54;;;;;;;0.80;0.45;;;9.30;99.90;;;;;;5091660;28;20043;-64
2023/06/03 02:04:19;;;;;;;0.73;0.40;;;9.30;99.90;;;;;;5092167;28;20043;-64
2023/06/03 02:06:59;;;;;;;0.57;0.43;;;9.30;99.90;;;;;;5091892;28;20103;-64
2023/06/03 02:09:27;;;;;;;1.02;0.65;;;9.20;99.90;;;;;;5091668;28;20039;-65
2023/06/03 02:11:57;;;;;;;4.40;0.80;;;9.20;99.90;;;;;;5092078;28;20119;-64
2023/06/03 02:14:24;;;;;;;0.52;0.50;;;9.30;99.90;;;;;;5091985;28;20035;-64
2023/06/03 02:16:50;;;;;;;1.00;0.55;;;9.30;99.90;;;;;;5109419;28;20071;-64
2023/06/03 02:19:19;;;;;;;1.10;0.88;;;9.30;99.90;;;;;;5092220;28;20082;-64
2023/06/03 02:21:45;;;;;;;3.13;1.00;;;9.40;99.90;;;;;;5091180;28;20512;-64
2023/06/03 02:24:15;;;;;;;1.27;0.88;;;9.40;99.90;;;;;;5077692;28;20047;-64
2023/06/03 02:26:49;;;;;;;0.47;0.40;;;9.40;99.90;;;;;;5096360;28;20112;-64
2023/06/03 02:29:19;;;;;;;1.42;0.60;;;9.50;99.90;;;;;;5078843;28;20426;-64
2023/06/03 02:31:48;;;;;;;;;;;9.60;99.90;;;;;;5096293;28;20491;-64
2023/06/03 02:34:14;;;;;;;0.52;0.50;;;9.60;99.90;;;;;;5095916;28;19930;-63
2023/06/03 02:36:40;;;;;;;1.75;0.70;;;9.60;99.90;;;;;;5095503;28;20035;-64
2023/06/03 02:39:09;;;;;;;0.35;0.28;;;9.60;99.90;;;;;;5096001;28;20040;-64
2023/06/03 02:41:36;;;;;;;0.93;0.30;;;9.60;99.90;;;;;;5079129;28;20082;-64
2023/06/03 02:44:02;;;;;;;1.05;0.70;;;9.60;99.90;;;;;;5113525;28;20088;-64
2023/06/03 02:46:29;;;;;;;1.98;0.50;;;9.60;99.90;;;;;;5095856;28;20126;-64
2023/06/03 02:48:55;;;;;;;1.23;0.40;;;9.60;99.90;;;;;;5095893;28;20039;-64
2023/06/03 02:51:21;;;;;;;1.17;0.30;;;9.60;99.90;;;;;;5094866;28;20404;-64
2023/06/03 02:53:47;;;;;;;1.35;0.60;;;9.50;99.90;;;;;;5095426;28;20044;-64
2023/06/03 02:56:13;;;;;;;1.85;0.50;;;9.50;99.90;;;;;;5095646;28;20104;-64
2023/06/03 02:58:40;;;;;;;0.73;0.52;;;9.50;99.90;;;;;;5094906;28;20082;-64
2023/06/03 03:01:06;;;;;;;0.80;0.38;;;9.50;99.90;;;;;;5113879;28;20433;-64
2023/06/03 03:03:35;;;;;;;0.73;0.43;;;9.50;99.90;;;;;;5113671;28;20027;-64
2023/06/03 03:06:06;;;;;;;1.70;0.52;;;9.40;99.90;;;;;;5095568;28;20415;-64
2023/06/03 03:08:33;;;;;;;0.57;0.38;;;9.40;99.90;;;;;;5113435;28;20055;-64
2023/06/03 03:10:59;;;;;;;4.68;0.65;;;9.40;99.90;;;;;;5112928;28;20093;-64
2023/06/03 03:13:24;;;;;;;0.82;0.65;;;9.30;99.90;;;;;;5095063;28;20039;-64
2023/06/03 03:15:51;;;;;;;0.47;0.30;;;9.30;99.90;;;;;;5095315;28;20100;-64
2023/06/03 03:18:17;;;;;;;0.50;0.35;;;9.20;99.90;;;;;;5077852;28;20123;-64
2023/06/03 03:20:43;;;;;;;0.43;0.40;;;9.20;99.90;;;;;;5095191;28;20546;-64
2023/06/03 03:23:12;;;;;;;0.85;0.47;;;9.10;99.90;;;;;;5113429;28;20122;-64
2023/06/03 03:25:40;;;;;;;0.38;0.30;;;9.10;99.90;;;;;;5112871;28;20404;-64
2023/06/03 03:28:06;;;;;;;0.22;0.22;;;9.10;99.90;;;;;;5095079;28;20059;-64
2023/06/03 03:30:33;;;;;;;0.65;0.35;;;9.10;99.90;;;;;;5094959;28;20075;-64
2023/06/03 03:32:59;;;;;;;1.85;0.22;;;9.10;99.90;;;;;;5112534;28;20063;-64
2023/06/03 03:35:25;;;;;;;1.13;0.70;;;9.00;99.90;;;;;;5111679;28;20035;-64
2023/06/03 03:38:04;;;;;;;1.58;0.50;;;9.00;99.90;;;;;;5078003;28;20035;-64
2023/06/03 03:40:33;;;;;;;0.38;0.30;;;9.00;99.90;;;;;;5077309;28;20040;-64
2023/06/03 03:43:02;;;;;;;0.43;0.22;;;9.00;99.90;;;;;;5112908;28;20031;-65
2023/06/03 03:45:35;;;;;;;0.50;0.40;;;9.00;99.90;;;;;;5077944;28;20387;-64
2023/06/03 03:48:04;;;;;;;1.23;0.77;;;9.00;99.90;;;;;;5094403;28;20051;-64
2023/06/03 03:50:43;;;;;;;0.10;0.10;;;9.00;99.90;;;;;;5094351;28;20055;-64
2023/06/03 03:53:19;;;;;;;1.33;0.50;;;8.90;99.90;;;;;;5112040;28;20055;-64
2023/06/03 03:55:49;;;;;;;0.30;0.20;;;9.00;99.90;;;;;;5094589;28;20031;-64
2023/06/03 03:58:37;;;;;;;0.20;0.20;;;8.90;99.90;;;;;;5112832;28;20035;-65
2023/06/03 04:01:23;;;;;;;0.35;0.28;;;8.90;99.90;;;;;;5112182;28;20054;-65
2023/06/03 04:03:54;;;;;;;0.40;0.40;;;8.90;99.90;;;;;;5094538;28;20047;-64
2023/06/03 04:06:37;;;;;;;1.42;0.40;;;8.90;99.90;;;;;;5094402;28;20509;-64
2023/06/03 04:09:07;;;;;;;0.30;0.30;;;8.90;99.90;;;;;;5093985;28;20051;-64
2023/06/03 04:11:38;;;;;;;0.50;0.30;;;8.90;99.90;;;;;;5112189;28;20086;-64
2023/06/03 04:14:08;;;;;;;1.30;0.40;;;8.90;99.90;;;;;;5076735;28;20039;-64
2023/06/03 04:16:42;;;;;;;0.65;0.38;;;8.90;99.90;;;;;;5093986;28;20524;-64
2023/06/03 04:19:32;;;;;;;0.85;0.40;;;8.90;99.90;;;;;;5094032;28;20665;-64
2023/06/03 04:21:59;;;;;;;0.68;0.50;;;8.90;99.90;;;;;;5093530;28;20046;-64
2023/06/03 04:24:26;;;;;;;1.92;0.40;;;9.00;99.90;;;;;;5077239;28;20031;-64
2023/06/03 04:26:52;;;;;;;0.50;0.32;;;9.00;99.90;;;;;;5093729;28;20499;-64
2023/06/03 04:29:19;;;;;;;0.43;0.40;;;9.00;99.90;;;;;;5076308;28;20044;-65
2023/06/03 04:31:45;;;;;;;0.17;0.17;;;9.10;99.90;;;;;;5093808;28;20424;-65
2023/06/03 04:34:11;;;;;;;0.30;0.30;;;9.20;99.90;;;;;;5077114;28;20048;-64
2023/06/03 04:36:37;;;;;;;1.00;0.50;;;9.20;99.90;;;;;;5111363;28;20470;-64
2023/06/03 04:39:05;;;;;;;0.28;0.25;;;9.20;99.90;;;;;;5093493;28;20040;-65
2023/06/03 04:41:34;;;;;;;1.52;0.65;;;9.20;99.90;;;;;;5093399;28;20059;-64
2023/06/03 04:44:01;;;;;;;0.40;0.30;;;9.20;99.90;;;;;;5093363;28;20039;-65
2023/06/03 04:46:31;;;;;;;0.63;0.28;;;9.30;99.90;;;;;;5093178;28;20051;-64
2023/06/03 04:48:59;;;;;;;0.60;0.30;;;9.40;99.90;;;;;;5110708;28;20570;-64
2023/06/03 04:51:34;;;;;;;0.95;0.60;;;9.40;99.90;;;;;;5092861;28;20515;-62
2023/06/03 04:54:04;;;;;;;0.57;0.30;;;9.60;99.90;;;;;;5111158;28;20508;-63
2023/06/03 04:56:30;;;;;;;0.40;0.20;;;9.70;99.90;;;;;;5074871;28;20040;-63
2023/06/03 04:59:03;;;;;;;0.35;0.30;;;9.90;99.90;;;;;;5091208;28;20404;-64
2023/06/03 05:01:31;;;;;;;0.77;0.35;;;10.00;99.90;;;;;;5111160;28;20511;-65
2023/06/03 05:03:57;;;;;;;0.88;0.35;;;10.20;99.90;;;;;;5092026;28;20122;-64
2023/06/03 05:06:23;;;;;;;0.20;0.20;;;10.30;99.90;;;;;;5110945;28;20130;-63
2023/06/03 05:08:50;;;;;;;0.65;0.52;;;10.40;99.90;;;;;;5092660;28;20491;-64
2023/06/03 05:11:17;;;;;;;1.55;0.32;;;10.50;99.90;;;;;;5110036;28;20471;-64
2023/06/03 05:13:44;;;;;;;1.98;0.30;;;10.60;99.90;;;;;;5111043;28;20047;-64
2023/06/03 05:16:10;;;;;;;0.28;0.20;;;10.60;99.90;;;;;;5111018;28;20039;-63
2023/06/03 05:18:36;;;;;;;0.30;0.30;;;10.70;99.90;;;;;;5075037;28;20050;-64
2023/06/03 05:21:03;;;;;;;1.35;0.55;;;10.80;99.90;;;;;;5092691;28;20043;-64
2023/06/03 05:23:28;;;;;;;0.40;0.30;;;10.90;99.90;;;;;;5092626;28;20122;-63
2023/06/03 05:25:54;;;;;;;0.20;0.20;;;11.00;99.90;;;;;;5091652;28;20122;-64
2023/06/03 05:28:20;;;;;;;0.32;0.32;;;11.00;99.90;;;;;;5092508;28;20084;-65
2023/06/03 05:30:46;;;;;;;0.90;0.30;;;11.10;99.90;;;;;;5091650;28;20055;-64
2023/06/03 05:33:29;;;;;;;0.55;0.50;;;11.20;99.90;;;;;;5074930;28;20039;-64
2023/06/03 05:35:55;;;;;;;0.43;0.32;;;11.30;99.90;;;;;;5109891;28;20043;-65
2023/06/03 05:38:22;;;;;;;1.70;0.45;;;11.40;99.90;;;;;;5109138;28;20108;-63
2023/06/03 05:40:51;;;;;;;1.95;0.40;;;11.60;99.90;;;;;;5091233;28;20051;-64
2023/06/03 05:43:18;;;;;;;0.95;0.40;;;11.60;99.90;;;;;;5091215;28;20491;-64
2023/06/03 05:45:45;;;;;;;0.75;0.50;;;11.70;99.90;;;;;;5109071;28;20093;-63
2023/06/03 05:48:11;;;;;;;0.77;0.30;;;11.80;99.90;;;;;;5091512;28;20505;-63
2023/06/03 05:50:46;;;;;;;0.40;0.32;;;11.80;99.90;;;;;;5109088;28;20051;-63
2023/06/03 05:53:12;;;;;;;0.77;0.25;;;11.90;99.90;;;;;;5109121;28;20552;-62
2023/06/03 05:55:38;;;;;;;0.30;0.25;;;12.10;99.90;;;;;;5109778;28;20115;-63
2023/06/03 05:58:04;;;;;;;0.35;0.35;;;12.20;99.90;;;;;;5090426;28;20039;-63
2023/06/03 06:00:29;;;;;;;0.65;0.30;;;12.30;99.90;;;;;;5108725;28;20047;-63
2023/06/03 06:02:55;;;;;;;0.43;0.43;;;12.40;99.90;;;;;;5074595;28;20045;-65
2023/06/03 06:05:21;;;;;;;0.45;0.30;;;12.60;99.90;;;;;;5091413;28;20553;-63
2023/06/03 06:07:47;;;;;;;1.35;0.50;;;12.80;99.90;;;;;;5108808;28;20035;-65
2023/06/03 06:10:13;;;;;;;1.15;0.50;;;12.90;99.90;;;;;;5074370;28;20395;-65
2023/06/03 06:12:39;;;;;;;0.40;0.30;;;12.90;99.90;;;;;;5090291;28;20487;-64
2023/06/03 06:15:05;;;;;;;0.95;0.20;;;12.80;99.90;;;;;;5091169;28;20046;-65
2023/06/03 06:17:31;;;;;;;0.82;0.47;;;12.80;99.90;;;;;;5091132;28;20488;-65
2023/06/03 06:19:57;;;;;;;0.45;0.20;;;13.00;99.90;;;;;;5090201;28;20035;-65
2023/06/03 06:22:22;;;;;;;0.30;0.20;;;13.10;99.90;;;;;;5074002;28;20047;-65
2023/06/03 06:24:48;;;;;;;0.40;0.30;;;13.20;99.90;;;;;;5109306;28;20047;-66
2023/06/03 06:27:14;;;;;;;0.57;0.30;;;13.30;99.90;;;;;;5073697;28;20052;-65
2023/06/03 06:29:40;;;;;;;0.57;0.30;;;13.40;99.90;;;;;;5109324;28;20377;-65
2023/06/03 06:32:06;;;;;;;0.75;0.43;;;13.70;99.90;;;;;;5108945;28;20043;-65
2023/06/03 06:34:34;;;;;;;0.38;0.30;;;14.00;99.90;;;;;;5090487;28;20391;-65
2023/06/03 06:37:00;;;;;;;2.05;0.63;;;14.40;99.90;;;;;;5090970;28;20071;-65
2023/06/03 06:39:46;;;;;;;1.63;0.30;;;14.70;99.90;;;;;;5109170;28;20036;-65
2023/06/03 06:42:13;;;;;;;1.10;0.30;;;15.00;99.90;;;;;;5090319;28;20364;-66
2023/06/03 06:44:47;;;;;;;0.40;0.30;;;15.40;99.90;;;;;;5090611;28;20131;-63
2023/06/03 06:47:25;;;;;;;0.20;0.20;;;15.70;99.90;;;;;;5090845;28;20123;-65
2023/06/03 06:49:52;;;;;;;0.63;0.43;;;16.00;99.90;;;;;;5108048;28;20118;-65
2023/06/03 06:52:22;;;;;;;0.85;0.40;;;16.20;99.90;;;;;;5073673;28;20043;-65
2023/06/03 06:54:49;;;;;;;1.20;0.20;;;16.40;99.90;;;;;;5090186;28;20572;-65
2023/06/03 06:57:23;;;;;;;0.30;0.20;;;16.60;99.90;;;;;;5090649;28;20071;-65
2023/06/03 06:59:53;;;;;;;0.20;0.10;;;16.90;99.90;;;;;;5090710;28;20036;-67
2023/06/03 07:02:21;;;;;;;0.25;0.17;;;17.20;99.90;;;;;;5108479;28;20043;-65
2023/06/03 07:04:49;;;;;;;0.38;0.20;;;17.30;99.90;;;;;;5074143;28;20372;-65
2023/06/03 07:07:15;;;;;;;1.58;0.30;;;17.50;99.90;;;;;;5090764;28;20371;-65
2023/06/03 07:09:41;;;;;;;0.52;0.25;;;17.70;99.90;;;;;;5091974;28;20503;-64
2023/06/03 07:12:08;;;;;;;0.22;0.20;;;17.90;99.90;;;;;;5112644;28;20436;-65
2023/06/03 07:14:34;;;;;;;1.20;0.40;;;18.10;99.90;;;;;;5094052;28;20067;-65
2023/06/03 07:17:00;;;;;;;0.32;0.20;;;18.40;99.90;;;;;;5093705;28;20071;-65
2023/06/03 07:19:44;;;;;;;1.13;0.30;;;18.50;99.90;;;;;;5093990;28;20427;-66
2023/06/03 07:22:10;;;;;;;0.90;0.20;;;18.90;99.90;;;;;;5093996;28;20069;-66
2023/06/03 07:24:36;;;;;;;0.45;0.20;;;19.00;99.90;;;;;;5093213;28;20156;-65
2023/06/03 07:27:07;;;;;;;0.65;0.30;;;19.20;99.90;;;;;;5094087;28;20548;-64
2023/06/03 07:29:38;;;;;;;0.38;0.28;;;19.40;99.90;;;;;;5111709;28;20076;-66
2023/06/03 07:32:07;;;;;;;0.45;0.22;;;19.60;99.90;;;;;;5093659;28;20107;-65
2023/06/03 07:34:34;;;;;;;0.22;0.20;;;19.90;98.70;;;;;;5093850;28;20032;-65
2023/06/03 07:37:02;;;;;;;0.28;0.13;;;20.10;98.70;;;;;;5093354;28;20560;-65
2023/06/03 07:39:28;;;;;;;1.65;0.22;;;20.10;97.60;;;;;;5093525;28;20039;-64
2023/06/03 07:41:54;;;;;;;0.32;0.28;;;19.90;96.20;;;;;;5093906;28;20035;-63
2023/06/03 07:44:47;;;;;;;2.67;0.30;;;19.50;94.10;;;;;;5076003;28;20118;-64
2023/06/03 07:47:15;;;;;;;1.25;0.35;;;19.10;93.40;;;;;;5084886;28;20051;-64
2023/06/03 07:49:45;;;;;;;0.20;0.20;;;18.80;96.70;;;;;;5093361;28;20420;-65
2023/06/03 07:52:18;;;;;;;2.53;0.73;;;18.60;96.40;;;;;;5092804;28;20052;-64
2023/06/03 07:54:44;;;;;;;0.20;0.20;;;18.30;95.80;;;;;;5111910;28;20031;-64
2023/06/03 07:57:12;;;;;;;0.50;0.30;;;18.30;96.50;;;;;;5093370;28;20509;-64
2023/06/03 07:59:38;;;;;;;0.90;0.20;;;18.10;96.50;;;;;;5092650;28;20040;-64
2023/06/03 08:02:10;;;;;;;0.13;0.10;;;18.00;95.80;;;;;;5093253;28;20093;-64
2023/06/03 08:04:37;;;;;;;0.20;0.20;;;17.80;96.40;;;;;;5075506;28;20492;-64
2023/06/03 08:07:05;;;;;;;0.30;0.20;;;17.60;96.50;;;;;;5076009;28;20043;-64
2023/06/03 08:09:36;;;;;;;0.93;0.30;;;17.50;96.30;;;;;;5111338;28;20047;-64
2023/06/03 08:12:07;;;;;;;0.98;0.30;;;17.40;96.20;;;;;;5110273;28;20127;-64
2023/06/03 08:14:35;;;;;;;2.63;0.50;;;17.30;96.10;;;;;;5093051;28;20074;-64
2023/06/03 08:17:11;;;;;;;0.98;0.60;;;17.20;95.90;;;;;;5076015;28;20050;-64
2023/06/03 08:19:38;;;;;;;0.25;0.20;;;17.20;96.00;;;;;;5092286;28;20116;-64
2023/06/03 08:22:50;;;;;;;0.28;0.22;;;17.10;96.50;;;;;;5110465;28;20434;-64
2023/06/03 08:25:16;;;;;;;0.70;0.50;;;17.30;95.90;;;;;;5106717;28;20048;-64
2023/06/03 08:27:42;;;;;;;0.80;0.30;;;17.60;96.10;;;;;;5075513;28;20096;-65
2023/06/03 08:30:08;;;;;;;0.95;0.20;;;18.00;96.40;;;;;;5092437;28;20470;-64
2023/06/03 08:32:35;;;;;;;1.55;0.35;;;18.40;96.20;;;;;;5110253;28;20032;-65
2023/06/03 08:35:02;;;;;;;1.45;0.60;;;18.90;96.10;;;;;;5092453;28;20055;-65
2023/06/03 08:37:28;;;;;;;0.43;0.30;;;19.20;95.20;;;;;;5110678;28;20122;-65
2023/06/03 08:39:54;;;;;;;0.65;0.30;;;19.70;96.60;;;;;;5110245;28;20032;-65
2023/06/03 08:42:28;;;;;;;2.42;0.52;;;20.20;96.60;;;;;;5092153;28;20050;-65
2023/06/03 08:45:05;;;;;;;0.77;0.22;;;20.60;96.00;;;;;;5092097;28;20051;-64
2023/06/03 08:47:40;;;;;;;6.05;0.38;;;21.00;95.30;;;;;;5074900;28;20403;-65
2023/06/03 08:50:13;;;;;;;0.35;0.20;;;21.30;94.30;;;;;;5091730;28;20055;-63
2023/06/03 08:52:41;;;;;;;0.30;0.20;;;21.60;94.80;;;;;;5092328;28;20192;-65
2023/06/03 08:55:11;;;;;;;1.30;0.38;;;22.00;94.20;;;;;;5109962;28;20043;-64
2023/06/03 08:57:48;;;;;;;0.40;0.20;;;22.20;93.20;;;;;;5110900;28;20031;-65
2023/06/03 09:00:20;;;;;;;0.13;0.10;;;22.50;93.90;;;;;;5092123;28;20048;-63
2023/06/03 09:02:47;;;;;;;0.60;0.35;;;22.70;93.70;;;;;;5091528;28;20587;-64
2023/06/03 09:05:13;;;;;;;0.85;0.20;;;22.80;92.90;;;;;;5092096;28;20079;-64
2023/06/03 09:07:39;;;;;;;0.40;0.20;;;22.80;88.40;;;;;;5091659;28;20085;-63
2023/06/03 09:10:07;;;;;;;0.22;0.13;;;22.90;91.00;;;;;;5110226;28;20119;-65
2023/06/03 09:12:34;;;;;;;0.47;0.20;;;22.90;88.40;;;;;;5092015;28;20075;-63
2023/06/03 09:15:01;;;;;;;0.80;0.25;;;23.00;87.20;;;;;;5074120;28;20040;-64
2023/06/03 09:17:28;;;;;;;1.25;0.10;;;23.00;82.00;;;;;;5075118;28;20043;-64
2023/06/03 09:19:57;;;;;;;0.50;0.17;;;22.90;83.20;;;;;;5074705;28;20052;-65
2023/06/03 09:22:25;;;;;;;3.17;0.32;;;22.90;83.00;;;;;;5090871;28;20043;-63
2023/06/03 09:24:51;;;;;;;0.75;0.32;;;22.80;76.90;;;;;;5075029;28;20128;-64
2023/06/03 09:27:16;;;;;;;0.50;0.28;;;22.80;75.30;;;;;;5110030;28;20036;-63
2023/06/03 09:29:42;;;;;;;0.57;0.20;;;22.80;77.00;;;;;;5074264;28;20050;-64
2023/06/03 09:32:08;;;;;;;0.90;0.20;;;23.00;79.20;;;;;;5109397;28;20030;-64
2023/06/03 09:34:35;;;;;;;0.40;0.30;;;23.20;76.60;;;;;;5090799;28;20043;-63
2023/06/03 09:37:08;;;;;;;0.32;0.10;;;23.30;71.50;;;;;;5091013;28;20074;-64
2023/06/03 09:39:35;;;;;;;0.15;0.10;;;23.20;72.80;;;;;;5091721;28;20054;-64
2023/06/03 09:42:01;;;;;;;0.10;0.05;;;23.20;73.60;;;;;;5109423;28;20039;-63
2023/06/03 09:44:46;;;;;;;0.40;0.30;;;23.20;70.90;;;;;;5090376;28;20131;-64
2023/06/03 09:47:12;;;;;;;0.68;0.20;;;23.30;70.50;;;;;;5109710;28;20040;-64
2023/06/03 09:49:39;;;;;;;1.02;0.20;;;23.40;70.60;;;;;;5090486;28;20476;-65
2023/06/03 09:52:10;;;;;;;1.40;0.20;;;23.40;71.60;;;;;;5090868;28;20132;-64
2023/06/03 09:54:36;;;;;;;0.77;0.20;;;23.50;70.90;;;;;;5109095;28;20119;-65
2023/06/03 09:57:12;;;;;;;0.68;0.15;;;23.70;70.50;;;;;;5090332;28;20130;-65
2023/06/03 09:59:42;;;;;;;0.75;0.10;;;24.00;67.20;;;;;;5091202;28;20526;-64
2023/06/03 10:02:12;;;;;;;0.10;0.10;;;24.00;68.40;;;;;;5091222;28;20070;-64
2023/06/03 10:04:41;;;;;;;0.50;0.40;;;24.10;67.70;;;;;;5090645;28;20039;-64
2023/06/03 10:07:09;;;;;;;0.25;0.05;;;24.20;65.70;;;;;;5090892;28;20075;-64
2023/06/03 10:09:35;;;;;;;2.08;0.20;;;24.30;68.00;;;;;;5091309;28;20044;-62
2023/06/03 10:12:02;;;;;;;0.17;0.17;;;24.30;68.90;;;;;;5108277;28;20055;-62
2023/06/03 10:14:28;;;;;;;0.40;0.17;;;24.40;67.70;;;;;;5074103;28;20035;-62
2023/06/03 10:17:10;;;;;;;0.15;0.10;;;24.50;67.50;;;;;;5074077;28;20446;-62
2023/06/03 10:19:44;;;;;;;0.47;0.22;;;24.30;64.80;;;;;;5089949;28;20500;-62
2023/06/03 10:22:13;;;;;;;0.20;0.10;;;24.10;63.80;;;;;;5109200;28;20069;-61
2023/06/03 10:24:40;;;;;;;0.47;0.20;;;24.00;65.30;;;;;;5090070;28;20122;-61
2023/06/03 10:27:07;;;;;;;0.40;0.20;;;24.10;65.30;;;;;;5090572;28;20043;-61
2023/06/03 10:29:33;;;;;;;0.38;0.30;;;24.00;64.20;;;;;;5090895;28;20080;-62
2023/06/03 10:32:05;;;;;;;0.40;0.30;;;24.20;64.80;;;;;;5073233;28;20039;-62
2023/06/03 10:34:35;;;;;;;0.98;0.30;;;24.40;62.90;;;;;;5106330;28;20039;-62
2023/06/03 10:37:04;;;;;;;1.85;0.30;;;24.40;62.20;;;;;;5108628;28;20126;-62
2023/06/03 10:39:32;;;;;;;0.63;0.10;;;24.30;61.50;;;;;;5086197;28;20082;-61
2023/06/03 10:42:00;;;;;;;0.00;0.00;;;24.40;60.40;;;;;;5070321;28;20051;-62
2023/06/03 10:44:26;;;;;;;0.10;0.10;;;24.50;63.20;;;;;;5055104;28;20130;-61
2023/06/03 10:46:59;;;;;;;0.52;0.20;;;24.80;63.60;;;;;;5073701;28;20040;-62
2023/06/03 10:49:30;;;;;;;1.23;0.63;;;24.90;60.20;;;;;;5073934;28;20491;-62
2023/06/03 10:52:33;;;;;;;0.38;0.10;;;25.00;56.30;;;;;;5081154;28;20063;-63
2023/06/03 10:55:20;;;;;;;0.22;0.13;;;24.90;58.90;;;;;;5094830;28;20474;-62
2023/06/03 10:57:51;;;;;;;0.85;0.17;;;24.80;59.50;;;;;;5094814;28;20450;-62
2023/06/03 11:00:57;;;;;;;0.10;0.10;;;24.80;55.30;;;;;;5085044;28;20036;-61
2023/06/03 11:03:31;;;;;;;1.58;0.20;;;24.80;58.60;;;;;;5057401;28;20039;-63
2023/06/03 11:06:21;;;;;;;0.10;0.10;;;24.80;59.80;;;;;;5074310;28;20098;-62
2023/06/03 11:08:57;;;;;;;0.60;0.20;;;24.80;59.00;;;;;;5073580;28;20393;-61
2023/06/03 11:11:41;;;;;;;0.20;0.10;;;24.80;58.40;;;;;;5073755;28;20510;-62
2023/06/03 11:14:11;;;;;;;0.20;0.10;;;24.90;55.90;;;;;;5073687;28;20036;-62
2023/06/03 11:17:01;;;;;;;0.17;0.10;;;24.90;57.70;;;;;;5073776;28;20032;-61
2023/06/03 11:19:38;;;;;;;1.63;0.50;;;24.90;53.30;;;;;;5081543;28;20080;-62
2023/06/03 11:22:07;;;;;;;1.45;0.30;;;25.00;58.20;;;;;;5091209;28;20539;-62
2023/06/03 11:24:39;;;;;;;0.60;0.20;;;25.00;56.50;;;;;;5073844;28;20074;-61
2023/06/03 11:27:11;;;;;;;0.08;0.05;;;24.90;56.60;;;;;;5073837;28;20043;-62
2023/06/03 11:29:51;;;;;;;0.40;0.10;;;24.80;55.90;;;;;;5073336;28;20500;-60
2023/06/03 11:32:22;;;;;;;0.85;0.30;;;24.70;51.60;;;;;;5093829;28;20052;-62
2023/06/03 11:34:49;;;;;;;0.30;0.10;;;24.60;56.40;;;;;;5111616;28;20036;-62
2023/06/03 11:37:17;;;;;;;0.73;0.20;;;24.50;56.70;;;;;;5111994;28;20139;-62
2023/06/03 11:40:00;;;;;;;0.40;0.22;;;24.50;57.60;;;;;;5076695;28;20559;-61
2023/06/03 11:42:27;;;;;;;0.63;0.20;;;24.60;51.60;;;;;;5111151;28;20492;-61
2023/06/03 11:44:53;;;;;;;2.08;0.20;;;24.50;56.50;;;;;;5093675;28;20039;-62
2023/06/03 11:47:19;;;;;;;0.43;0.17;;;24.60;57.30;;;;;;5111872;28;20035;-63
2023/06/03 11:49:45;;;;;;;0.10;0.10;;;24.70;57.10;;;;;;5110996;28;20062;-63
2023/06/03 11:52:11;;;;;;;0.90;0.32;;;24.80;58.30;;;;;;5093324;28;20040;-63
2023/06/03 11:54:38;;;;;;;0.50;0.10;;;24.90;54.30;;;;;;5089595;28;20500;-62
2023/06/03 11:57:05;;;;;;;1.02;0.30;;;24.80;53.40;;;;;;5071546;28;20063;-62
2023/06/03 11:59:41;;;;;;;1.85;0.25;;;24.70;53.70;;;;;;5073202;28;20047;-64
2023/06/03 12:02:07;;;;;;;0.25;0.10;;;24.60;55.70;;;;;;5056555;28;20055;-61
2023/06/03 12:04:34;;;;;;;0.45;0.10;;;24.60;56.50;;;;;;5093532;28;20040;-62
2023/06/03 12:07:01;;;;;;;0.38;0.17;;;24.60;56.40;;;;;;5073067;28;20052;-63
2023/06/03 12:09:28;;;;;;;0.10;0.10;;;24.50;54.40;;;;;;5072951;28;20032;-62
2023/06/03 12:11:55;;;;;;;0.52;0.20;;;24.40;54.20;;;;;;5072103;28;20048;-61
2023/06/03 12:14:32;;;;;;;0.52;0.30;;;24.30;54.60;;;;;;5089534;28;20062;-63
2023/06/03 12:17:12;;;;;;;0.10;0.10;;;24.30;51.70;;;;;;5110674;28;20039;-62
2023/06/03 12:19:47;;;;;;;0.30;0.10;;;24.30;54.80;;;;;;5092880;28;20044;-63
2023/06/03 12:22:19;;;;;;;1.20;0.30;;;24.40;55.40;;;;;;5108791;28;20067;-62
2023/06/03 12:24:45;;;;;;;1.00;0.30;;;24.40;55.90;;;;;;5110630;28;20115;-62
2023/06/03 12:27:15;;;;;;;0.30;0.10;;;24.50;54.70;;;;;;5089155;28;20626;-63
2023/06/03 12:29:44;;;;;;;0.55;0.20;;;24.40;55.60;;;;;;5092046;28;20066;-63
2023/06/03 12:32:11;;;;;;;0.63;0.30;;;24.40;55.90;;;;;;5110501;28;20044;-62
2023/06/03 12:34:37;;;;;;;0.77;0.20;;;24.30;55.50;;;;;;5092550;28;20043;-62
2023/06/03 12:37:05;;;;;;;0.50;0.20;;;24.30;55.10;;;;;;5110539;28;20111;-61
2023/06/03 12:39:43;;;;;;;0.70;0.20;;;24.20;55.30;;;;;;5074526;28;20075;-62
2023/06/03 12:42:10;;;;;;;1.48;0.55;;;24.20;53.80;;;;;;5092423;28;20499;-64
2023/06/03 12:44:43;;;;;;;4.60;0.38;;;24.10;55.20;;;;;;5091637;28;20271;-64
2023/06/03 12:47:09;;;;;;;0.47;0.25;;;24.10;57.10;;;;;;5110414;28;20044;-62
2023/06/03 12:49:35;;;;;;;0.43;0.10;;;24.10;55.40;;;;;;5092290;28;20429;-63
2023/06/03 12:52:10;;;;;;;0.73;0.10;;;24.00;54.60;;;;;;5109560;28;20074;-61
2023/06/03 12:54:37;;;;;;;0.52;0.20;;;23.90;54.60;;;;;;5110215;28;20035;-64
2023/06/03 12:57:03;;;;;;;1.30;0.20;;;23.80;56.10;;;;;;5075339;28;20047;-63
2023/06/03 12:59:30;;;;;;;0.82;0.22;;;23.90;56.40;;;;;;5109832;28;20035;-63
2023/06/03 13:01:56;;;;;;;0.60;0.20;;;23.80;55.80;;;;;;5091930;28;20130;-62
2023/06/03 13:04:23;;;;;;;0.17;0.17;;;23.70;55.30;;;;;;5092066;28;20139;-64